createdAt,value
2023-02-25T00:01:20.010Z,98977.28
2023-02-25T00:03:48.601Z,98976.44
2023-02-25T00:06:16.717Z,98969.56
2023-02-25T00:08:46.042Z,98980.00
2023-02-25T00:11:16.355Z,98981.09
2023-02-25T00:13:44.738Z,98988.13
2023-02-25T00:16:13.142Z,98986.50
2023-02-25T00:18:44.206Z,98983.00
2023-02-25T00:21:15.414Z,98985.88
2023-02-25T00:23:44.411Z,98985.38
2023-02-25T00:26:12.578Z,98992.38
2023-02-25T00:28:43.201Z,98994.34
2023-02-25T00:31:13.654Z,98994.19
2023-02-25T00:33:42.309Z,98997.00
2023-02-25T00:36:10.893Z,98998.13
2023-02-25T00:38:38.879Z,98997.53
2023-02-25T00:41:11.835Z,98997.72
2023-02-25T00:43:40.373Z,98998.25
2023-02-25T00:46:09.775Z,99004.53
2023-02-25T00:48:38.499Z,99000.66
2023-02-25T00:51:07.636Z,99006.34
2023-02-25T00:53:35.703Z,99012.72
2023-02-25T00:56:03.553Z,99008.75
2023-02-25T00:58:31.332Z,99009.84
2023-02-25T01:01:01.845Z,99013.53
2023-02-25T01:03:31.238Z,99015.28
2023-02-25T01:05:59.313Z,99017.09
2023-02-25T01:08:27.571Z,99014.75
2023-02-25T01:10:55.689Z,99018.31
2023-02-25T01:13:24.396Z,99010.00
2023-02-25T01:15:52.338Z,99004.66
2023-02-25T01:18:20.775Z,99003.38
2023-02-25T01:20:50.026Z,99005.59
2023-02-25T01:23:19.717Z,99013.19
2023-02-25T01:25:47.526Z,99007.16
2023-02-25T01:28:15.346Z,99007.91
2023-02-25T01:30:45.068Z,99009.19
2023-02-25T01:33:13.155Z,99006.91
2023-02-25T01:35:40.933Z,99007.91
2023-02-25T01:38:10.129Z,99006.63
2023-02-25T01:40:37.910Z,99008.38
2023-02-25T01:43:08.066Z,99004.34
2023-02-25T01:45:39.122Z,98996.81
2023-02-25T01:48:10.947Z,98998.66
2023-02-25T01:50:43.418Z,98991.47
2023-02-25T01:53:15.527Z,98978.81
2023-02-25T01:55:44.299Z,98978.63
2023-02-25T01:58:13.497Z,98991.63
2023-02-25T02:00:41.657Z,98996.34
2023-02-25T02:03:15.894Z,98992.09
2023-02-25T02:05:51.114Z,99000.88
2023-02-25T02:08:20.545Z,99002.63
2023-02-25T02:10:48.421Z,98996.75
2023-02-25T02:13:16.591Z,98992.44
2023-02-25T02:15:48.528Z,98992.25
2023-02-25T02:18:17.806Z,98997.97
2023-02-25T02:20:52.758Z,99008.44
2023-02-25T02:23:39.754Z,99000.25
2023-02-25T02:26:31.509Z,99011.75
2023-02-25T02:29:17.883Z,99007.72
2023-02-25T02:31:58.832Z,99013.09
2023-02-25T02:34:32.288Z,99009.88
2023-02-25T02:37:07.390Z,99007.56
2023-02-25T02:39:44.607Z,99009.88
2023-02-25T02:42:18.737Z,99007.25
2023-02-25T02:44:49.852Z,99014.44
2023-02-25T02:47:23.938Z,99007.03
2023-02-25T02:49:54.990Z,99019.28
2023-02-25T02:52:24.697Z,99012.69
2023-02-25T02:54:55.615Z,99002.66
2023-02-25T02:57:24.691Z,99011.84
2023-02-25T02:59:55.043Z,99012.69
2023-02-25T03:02:28.116Z,99014.94
2023-02-25T03:05:01.569Z,99012.44
2023-02-25T03:07:32.197Z,99013.22
2023-02-25T03:10:03.835Z,99018.19
2023-02-25T03:12:33.746Z,99016.59
2023-02-25T03:15:01.384Z,99030.84
2023-02-25T03:17:36.522Z,99025.13
2023-02-25T03:20:09.373Z,99036.28
2023-02-25T03:22:40.548Z,99038.03
2023-02-25T03:25:11.799Z,99041.19
2023-02-25T03:27:41.650Z,99035.53
2023-02-25T03:30:13.077Z,99040.78
2023-02-25T03:32:44.214Z,99034.88
2023-02-25T03:35:13.981Z,99036.03
2023-02-25T03:37:42.943Z,99028.59
2023-02-25T03:40:13.855Z,99033.16
2023-02-25T03:42:44.698Z,99023.22
2023-02-25T03:45:14.716Z,99028.13
2023-02-25T03:47:44.582Z,99023.94
2023-02-25T03:50:14.718Z,99020.81
2023-02-25T03:52:45.511Z,99034.03
2023-02-25T03:55:29.349Z,99032.72
2023-02-25T03:57:57.720Z,99036.53
2023-02-25T04:00:26.517Z,99046.69
2023-02-25T04:02:55.665Z,99051.84
2023-02-25T04:05:25.074Z,99068.50
2023-02-25T04:07:52.861Z,99068.00
2023-02-25T04:10:20.917Z,99056.88
2023-02-25T04:12:50.740Z,99053.91
2023-02-25T04:15:19.665Z,99060.19
2023-02-25T04:17:48.099Z,99062.22
2023-02-25T04:20:17.303Z,99063.53
2023-02-25T04:22:45.075Z,99063.34
2023-02-25T04:25:13.199Z,99065.69
2023-02-25T04:27:41.342Z,99066.16
2023-02-25T04:30:09.802Z,99072.81
2023-02-25T04:32:37.346Z,99074.63
2023-02-25T04:35:06.040Z,99065.41
2023-02-25T04:37:35.154Z,99068.47
2023-02-25T04:40:05.129Z,99077.84
2023-02-25T04:42:32.673Z,99072.09
2023-02-25T04:45:00.885Z,99078.22
2023-02-25T04:47:28.698Z,99064.78
2023-02-25T04:49:56.367Z,99065.47
2023-02-25T04:52:24.000Z,99064.81
2023-02-25T04:54:53.207Z,99068.78
2023-02-25T04:57:21.015Z,99060.44
2023-02-25T04:59:48.999Z,99065.72
2023-02-25T05:02:16.579Z,99077.91
2023-02-25T05:04:44.506Z,99070.94
2023-02-25T05:07:12.441Z,99071.97
2023-02-25T05:09:40.181Z,99080.94
2023-02-25T05:12:09.248Z,99080.91
2023-02-25T05:14:37.833Z,99083.97
2023-02-25T05:17:05.731Z,99082.94
2023-02-25T05:19:33.722Z,99077.41
2023-02-25T05:22:01.359Z,99073.41
2023-02-25T05:24:29.119Z,99067.16
2023-02-25T05:26:56.957Z,99071.06
2023-02-25T05:29:26.105Z,99072.22
2023-02-25T05:31:55.303Z,99079.47
2023-02-25T05:34:23.491Z,99071.44
2023-02-25T05:36:51.218Z,99078.56
2023-02-25T05:39:18.996Z,99078.50
2023-02-25T05:41:47.167Z,99089.94
2023-02-25T05:44:14.712Z,99088.03
2023-02-25T05:46:43.770Z,99073.06
2023-02-25T05:49:11.692Z,99065.56
2023-02-25T05:51:39.727Z,99067.59
2023-02-25T05:54:07.654Z,99067.66
2023-02-25T05:56:35.253Z,99061.31
2023-02-25T05:59:03.005Z,99066.84
2023-02-25T06:01:31.785Z,99055.91
2023-02-25T06:04:01.239Z,99059.06
2023-02-25T06:06:29.631Z,99059.47
2023-02-25T06:08:57.662Z,99070.41
2023-02-25T06:11:28.515Z,99073.81
2023-02-25T06:13:56.952Z,99071.31
2023-02-25T06:16:25.777Z,99079.13
2023-02-25T06:18:53.956Z,99082.41
2023-02-25T06:21:22.827Z,99075.78
2023-02-25T06:23:51.338Z,99083.31
2023-02-25T06:26:19.709Z,99086.53
2023-02-25T06:28:47.462Z,99096.91
2023-02-25T06:31:16.504Z,99101.72
2023-02-25T06:33:44.630Z,99108.03
2023-02-25T06:36:13.872Z,99098.09
2023-02-25T06:38:43.214Z,99106.28
2023-02-25T06:41:12.019Z,99101.06
2023-02-25T06:43:39.857Z,99107.56
2023-02-25T06:46:08.905Z,99104.50
2023-02-25T06:48:37.003Z,99103.13
2023-02-25T06:51:09.456Z,99102.88
2023-02-25T06:53:37.878Z,99094.81
2023-02-25T06:56:08.752Z,99093.44
2023-02-25T06:58:37.510Z,99102.06
2023-02-25T07:01:06.788Z,99112.94
2023-02-25T07:03:35.127Z,99112.38
2023-02-25T07:06:03.513Z,99106.75
2023-02-25T07:08:32.399Z,99109.66
2023-02-25T07:11:14.833Z,99113.66
2023-02-25T07:13:43.816Z,99118.75
2023-02-25T07:16:11.558Z,99116.28
2023-02-25T07:18:39.553Z,99127.00
2023-02-25T07:21:07.321Z,99125.09
2023-02-25T07:23:35.398Z,99132.84
2023-02-25T07:26:03.720Z,99139.91
2023-02-25T07:28:32.675Z,99150.34
2023-02-25T07:31:01.404Z,99151.56
2023-02-25T07:33:29.655Z,99148.06
2023-02-25T07:36:00.752Z,99146.91
2023-02-25T07:38:28.291Z,99162.13
2023-02-25T07:41:04.636Z,99156.38
2023-02-25T07:43:33.695Z,99139.75
2023-02-25T07:46:01.721Z,99143.75
2023-02-25T07:48:30.033Z,99146.25
2023-02-25T07:51:06.248Z,99137.19
2023-02-25T07:53:33.976Z,99145.66
2023-02-25T07:56:01.992Z,99153.38
2023-02-25T07:58:29.913Z,99157.00
2023-02-25T08:00:59.834Z,99155.09
2023-02-25T08:03:28.103Z,99152.50
2023-02-25T08:05:55.717Z,99144.94
2023-02-25T08:08:23.506Z,99148.88
2023-02-25T08:10:51.147Z,99147.94
2023-02-25T08:13:19.452Z,99142.72
2023-02-25T08:15:47.517Z,99153.34
2023-02-25T08:18:16.693Z,99149.78
2023-02-25T08:20:46.557Z,99148.28
2023-02-25T08:23:14.593Z,99143.88
2023-02-25T08:25:42.230Z,99150.19
2023-02-25T08:28:10.312Z,99144.84
2023-02-25T08:30:38.357Z,99153.50
2023-02-25T08:33:06.230Z,99151.88
2023-02-25T08:35:35.271Z,99148.91
2023-02-25T08:38:07.817Z,99155.41
2023-02-25T08:40:36.415Z,99154.25
2023-02-25T08:43:04.235Z,99154.41
2023-02-25T08:45:32.145Z,99153.06
2023-02-25T08:48:00.176Z,99150.91
2023-02-25T08:50:27.961Z,99154.47
2023-02-25T08:52:57.841Z,99158.44
2023-02-25T08:55:25.621Z,99152.13
2023-02-25T08:57:53.683Z,99147.34
2023-02-25T09:00:22.704Z,99155.78
2023-02-25T09:02:50.643Z,99152.25
2023-02-25T09:05:20.563Z,99147.69
2023-02-25T09:07:48.499Z,99152.13
2023-02-25T09:10:18.044Z,99155.31
2023-02-25T09:12:46.506Z,99152.91
2023-02-25T09:15:14.601Z,99154.03
2023-02-25T09:17:42.195Z,99149.19
2023-02-25T09:20:11.418Z,99148.06
2023-02-25T09:22:40.136Z,99155.66
2023-02-25T09:25:08.301Z,99143.50
2023-02-25T09:27:37.606Z,99152.78
2023-02-25T09:30:05.777Z,99151.94
2023-02-25T09:32:33.636Z,99163.97
2023-02-25T09:35:07.142Z,99157.91
2023-02-25T09:37:35.454Z,99159.97
2023-02-25T09:40:05.620Z,99158.03
2023-02-25T09:42:43.672Z,99156.56
2023-02-25T09:45:15.604Z,99168.47
2023-02-25T09:47:46.707Z,99165.09
2023-02-25T09:50:21.667Z,99155.59
2023-02-25T09:52:54.673Z,99149.59
2023-02-25T09:55:24.363Z,99144.00
2023-02-25T09:57:58.477Z,99151.00
2023-02-25T10:00:28.093Z,99154.38
2023-02-25T10:02:59.489Z,99149.03
2023-02-25T10:05:30.401Z,99144.56
2023-02-25T10:08:02.779Z,99156.69
2023-02-25T10:10:35.421Z,99152.81
2023-02-25T10:13:07.230Z,99160.28
2023-02-25T10:15:52.508Z,99161.19
2023-02-25T10:18:34.047Z,99162.38
2023-02-25T10:21:08.374Z,99163.44
2023-02-25T10:23:49.144Z,99167.47
2023-02-25T10:26:19.189Z,99170.16
2023-02-25T10:28:49.051Z,99162.16
2023-02-25T10:31:19.722Z,99161.00
2023-02-25T10:33:49.873Z,99167.00
2023-02-25T10:36:18.658Z,99156.03
2023-02-25T10:38:47.867Z,99163.97
2023-02-25T10:41:16.274Z,99170.88
2023-02-25T10:43:44.769Z,99175.31
2023-02-25T10:46:15.336Z,99164.66
2023-02-25T10:48:50.411Z,99167.34
2023-02-25T10:51:18.487Z,99167.31
2023-02-25T10:54:02.553Z,99172.38
2023-02-25T10:56:33.929Z,99174.00
2023-02-25T10:59:02.750Z,99169.66
2023-02-25T11:01:36.603Z,99163.16
2023-02-25T11:04:06.976Z,99170.03
2023-02-25T11:06:35.849Z,99164.00
2023-02-25T11:09:05.783Z,99168.63
2023-02-25T11:11:34.643Z,99183.34
2023-02-25T11:14:05.141Z,99169.25
2023-02-25T11:16:36.289Z,99172.03
2023-02-25T11:19:11.539Z,99169.25
2023-02-25T11:21:40.857Z,99172.47
2023-02-25T11:24:14.936Z,99164.09
2023-02-25T11:26:45.269Z,99164.94
2023-02-25T11:29:15.560Z,99160.84
2023-02-25T11:31:44.100Z,99161.63
2023-02-25T11:34:17.019Z,99156.13
2023-02-25T11:36:48.139Z,99165.28
2023-02-25T11:39:20.643Z,99164.88
2023-02-25T11:41:49.518Z,99162.69
2023-02-25T11:44:22.877Z,99172.16
2023-02-25T11:47:00.034Z,99160.63
2023-02-25T11:49:32.972Z,99157.06
2023-02-25T11:52:05.974Z,99154.69
2023-02-25T11:54:37.054Z,99157.19
2023-02-25T11:57:10.310Z,99150.47
2023-02-25T11:59:39.852Z,99160.22
2023-02-25T12:02:17.957Z,99153.25
2023-02-25T12:04:54.461Z,99150.66
2023-02-25T12:07:35.120Z,99161.19
2023-02-25T12:10:21.997Z,99155.06
2023-02-25T12:13:06.999Z,99146.75
2023-02-25T12:15:52.406Z,99153.28
2023-02-25T12:18:34.709Z,99152.59
2023-02-25T12:21:25.808Z,99154.03
2023-02-25T12:24:12.277Z,99161.28
2023-02-25T12:26:58.208Z,99160.00
2023-02-25T12:29:38.504Z,99179.13
2023-02-25T12:32:27.143Z,99169.25
2023-02-25T12:35:09.664Z,99173.59
2023-02-25T12:37:56.734Z,99169.09
2023-02-25T12:40:33.352Z,99160.38
2023-02-25T12:43:06.817Z,99165.91
2023-02-25T12:45:45.295Z,99161.69
2023-02-25T12:48:32.443Z,99160.91
2023-02-25T12:51:14.825Z,99167.94
2023-02-25T12:53:46.874Z,99172.81
2023-02-25T12:56:31.397Z,99175.94
2023-02-25T12:59:16.897Z,99184.09
2023-02-25T13:01:52.631Z,99178.31
2023-02-25T13:04:38.115Z,99173.97
2023-02-25T13:07:25.512Z,99169.81
2023-02-25T13:10:08.109Z,99176.50
2023-02-25T13:12:49.683Z,99181.69
2023-02-25T13:15:21.032Z,99188.97
2023-02-25T13:18:07.473Z,99182.91
2023-02-25T13:20:56.137Z,99177.34
2023-02-25T13:23:39.419Z,99183.44
2023-02-25T13:26:15.589Z,99179.50
2023-02-25T13:28:52.876Z,99166.47
2023-02-25T13:31:25.294Z,99174.16
2023-02-25T13:34:03.773Z,99176.22
2023-02-25T13:36:39.962Z,99184.25
2023-02-25T13:39:15.561Z,99187.66
2023-02-25T13:41:52.697Z,99184.22
2023-02-25T13:44:39.823Z,99176.16
2023-02-25T13:47:31.988Z,99174.88
2023-02-25T13:50:18.077Z,99165.31
2023-02-25T13:52:55.796Z,99167.06
2023-02-25T13:55:36.900Z,99169.53
2023-02-25T13:58:15.982Z,99158.06
2023-02-25T14:01:00.069Z,99167.50
2023-02-25T14:03:48.509Z,99164.81
2023-02-25T14:06:25.437Z,99167.50
2023-02-25T14:09:12.311Z,99167.53
2023-02-25T14:11:44.612Z,99160.13
2023-02-25T14:14:27.629Z,99152.53
2023-02-25T14:17:09.697Z,99154.53
2023-02-25T14:19:41.448Z,99150.97
2023-02-25T14:22:30.352Z,99160.84
2023-02-25T14:25:04.155Z,99154.88
2023-02-25T14:27:34.719Z,99158.91
2023-02-25T14:30:14.494Z,99170.00
2023-02-25T14:32:50.376Z,99172.97
2023-02-25T14:35:28.557Z,99181.97
2023-02-25T14:38:04.324Z,99195.81
2023-02-25T14:40:36.964Z,99210.88
2023-02-25T14:43:13.057Z,99238.56
2023-02-25T14:45:44.620Z,99217.25
2023-02-25T14:48:17.980Z,99262.91
2023-02-25T14:50:48.132Z,99283.50
2023-02-25T14:53:34.299Z,99282.63
2023-02-25T14:56:28.604Z,99268.00
2023-02-25T14:59:13.091Z,99260.00
2023-02-25T15:01:58.466Z,99234.06
2023-02-25T15:04:37.592Z,99237.03
2023-02-25T15:07:11.429Z,99224.09
2023-02-25T15:10:01.226Z,99222.53
2023-02-25T15:12:37.159Z,99228.50
2023-02-25T15:15:24.922Z,99227.50
2023-02-25T15:18:17.205Z,99223.25
2023-02-25T15:20:46.847Z,99233.28
2023-02-25T15:23:16.069Z,99239.22
2023-02-25T15:25:45.472Z,99245.88
2023-02-25T15:28:31.594Z,99255.47
2023-02-25T15:31:07.866Z,99274.66
2023-02-25T15:33:36.516Z,99284.16
2023-02-25T15:36:20.681Z,99301.25
2023-02-25T15:38:51.639Z,99299.00
2023-02-25T15:41:41.257Z,99300.91
2023-02-25T15:44:33.178Z,99308.06
2023-02-25T15:47:23.247Z,99305.19
2023-02-25T15:49:51.660Z,99301.91
2023-02-25T15:52:37.997Z,99316.41
2023-02-25T15:55:20.151Z,99318.84
2023-02-25T15:57:48.233Z,99315.47
2023-02-25T16:00:34.732Z,99324.28
2023-02-25T16:03:23.102Z,99321.66
2023-02-25T16:05:51.128Z,99318.19
2023-02-25T16:08:23.825Z,99313.19
2023-02-25T16:10:55.310Z,99321.78
2023-02-25T16:13:26.357Z,99329.63
2023-02-25T16:15:57.387Z,99332.34
2023-02-25T16:18:30.493Z,99332.72
2023-02-25T16:21:00.479Z,99331.25
2023-02-25T16:23:31.067Z,99349.47
2023-02-25T16:26:05.873Z,99341.28
2023-02-25T16:28:37.957Z,99346.34
2023-02-25T16:31:11.681Z,99365.88
2023-02-25T16:33:45.075Z,99362.06
2023-02-25T16:36:18.251Z,99365.66
2023-02-25T16:38:48.378Z,99371.31
2023-02-25T16:41:17.398Z,99379.41
2023-02-25T16:43:45.886Z,99385.75
2023-02-25T16:46:16.482Z,99388.00
2023-02-25T16:48:50.297Z,99406.41
2023-02-25T16:51:25.963Z,99400.78
2023-02-25T16:53:58.911Z,99404.72
2023-02-25T16:56:29.623Z,99409.22
2023-02-25T16:59:15.173Z,99423.06
2023-02-25T17:01:48.136Z,99419.16
2023-02-25T17:04:17.078Z,99435.06
2023-02-25T17:06:44.611Z,99433.84
2023-02-25T17:09:22.871Z,99442.00
2023-02-25T17:11:54.376Z,99444.25
2023-02-25T17:14:22.483Z,99455.34
2023-02-25T17:16:51.060Z,99452.13
2023-02-25T17:19:21.170Z,99452.91
2023-02-25T17:21:52.243Z,99454.78
2023-02-25T17:24:21.772Z,99465.66
2023-02-25T17:26:50.186Z,99474.44
2023-02-25T17:29:19.322Z,99480.72
2023-02-25T17:31:48.713Z,99490.88
2023-02-25T17:34:19.167Z,99494.16
2023-02-25T17:36:47.576Z,99508.47
2023-02-25T17:39:16.832Z,99505.94
2023-02-25T17:41:44.963Z,99508.81
2023-02-25T17:44:13.839Z,99503.41
2023-02-25T17:46:52.484Z,99514.50
2023-02-25T17:49:24.820Z,99516.44
2023-02-25T17:51:53.888Z,99527.47
2023-02-25T17:54:23.320Z,99526.00
2023-02-25T17:56:58.807Z,99532.88
2023-02-25T17:59:36.593Z,99531.19
2023-02-25T18:02:29.776Z,99539.97
2023-02-25T18:05:18.524Z,99548.91
2023-02-25T18:07:59.522Z,99559.78
2023-02-25T18:10:42.275Z,99556.31
2023-02-25T18:13:18.808Z,99560.63
2023-02-25T18:15:53.176Z,99573.06
2023-02-25T18:18:25.110Z,99576.75
2023-02-25T18:20:58.065Z,99582.00
2023-02-25T18:23:27.587Z,99581.56
2023-02-25T18:26:10.174Z,99579.63
2023-02-25T18:28:38.757Z,99584.47
2023-02-25T18:31:08.013Z,99588.16
2023-02-25T18:33:37.428Z,99581.72
2023-02-25T18:36:05.838Z,99583.63
2023-02-25T18:38:35.021Z,99591.41
2023-02-25T18:41:07.070Z,99600.59
2023-02-25T18:43:40.107Z,99595.22
2023-02-25T18:46:07.719Z,99594.03
2023-02-25T18:48:37.161Z,99589.78
2023-02-25T18:51:05.655Z,99592.25
2023-02-25T18:53:33.643Z,99592.59
2023-02-25T18:56:01.988Z,99598.13
2023-02-25T18:58:29.962Z,99598.53
2023-02-25T19:00:59.556Z,99605.63
2023-02-25T19:03:36.365Z,99609.41
2023-02-25T19:06:06.529Z,99606.63
2023-02-25T19:08:34.423Z,99609.47
2023-02-25T19:11:02.265Z,99602.44
2023-02-25T19:13:30.873Z,99621.38
2023-02-25T19:15:58.490Z,99620.09
2023-02-25T19:18:26.480Z,99624.66
2023-02-25T19:20:55.190Z,99627.84
2023-02-25T19:23:25.200Z,99644.34
2023-02-25T19:25:56.257Z,99637.78
2023-02-25T19:28:24.118Z,99640.53
2023-02-25T19:30:51.777Z,99640.59
2023-02-25T19:33:19.453Z,99642.22
2023-02-25T19:35:47.119Z,99655.88
2023-02-25T19:38:16.588Z,99654.25
2023-02-25T19:40:46.632Z,99657.88
2023-02-25T19:43:15.184Z,99669.78
2023-02-25T19:45:43.198Z,99671.44
2023-02-25T19:48:11.387Z,99670.91
2023-02-25T19:50:41.393Z,99679.72
2023-02-25T19:53:09.429Z,99680.25
2023-02-25T19:55:39.057Z,99691.69
2023-02-25T19:58:08.200Z,99694.41
2023-02-25T20:00:36.122Z,99699.34
2023-02-25T20:03:03.858Z,99700.16
2023-02-25T20:05:31.589Z,99700.44
2023-02-25T20:08:00.599Z,99706.66
2023-02-25T20:10:28.220Z,99703.53
2023-02-25T20:12:55.914Z,99697.06
2023-02-25T20:15:24.914Z,99706.19
2023-02-25T20:17:55.298Z,99712.25
2023-02-25T20:20:23.822Z,99712.59
2023-02-25T20:22:51.693Z,99721.25
2023-02-25T20:25:21.499Z,99719.88
2023-02-25T20:27:49.166Z,99724.31
2023-02-25T20:30:17.882Z,99725.25
2023-02-25T20:32:47.515Z,99725.91
2023-02-25T20:35:17.109Z,99720.03
2023-02-25T20:37:49.659Z,99731.09
2023-02-25T20:40:17.995Z,99733.19
2023-02-25T20:42:45.573Z,99730.72
2023-02-25T20:45:15.944Z,99732.91
2023-02-25T20:47:43.953Z,99733.06
2023-02-25T20:50:15.764Z,99739.88
2023-02-25T20:52:43.979Z,99744.00
2023-02-25T20:55:14.532Z,99742.78
2023-02-25T20:57:42.544Z,99754.56
2023-02-25T21:00:15.606Z,99758.91
2023-02-25T21:02:47.248Z,99758.19
2023-02-25T21:05:17.228Z,99761.44
2023-02-25T21:07:44.935Z,99763.34
2023-02-25T21:10:13.008Z,99757.50
2023-02-25T21:12:40.523Z,99767.88
2023-02-25T21:15:08.887Z,99766.03
2023-02-25T21:17:36.787Z,99766.31
2023-02-25T21:20:07.098Z,99774.69
2023-02-25T21:22:36.493Z,99769.84
2023-02-25T21:25:10.225Z,99760.59
2023-02-25T21:27:38.136Z,99768.28
2023-02-25T21:30:07.655Z,99774.22
2023-02-25T21:32:35.877Z,99778.53
2023-02-25T21:35:06.688Z,99771.81
2023-02-25T21:37:36.084Z,99769.38
2023-02-25T21:40:04.487Z,99774.56
2023-02-25T21:42:32.416Z,99780.50
2023-02-25T21:45:01.094Z,99772.75
2023-02-25T21:47:28.641Z,99779.59
2023-02-25T21:49:56.659Z,99780.50
2023-02-25T21:52:24.405Z,99772.91
2023-02-25T21:54:54.084Z,99785.47
2023-02-25T21:57:22.165Z,99787.25
2023-02-25T21:59:51.722Z,99794.28
2023-02-25T22:02:19.628Z,99801.84
2023-02-25T22:04:47.709Z,99800.22
2023-02-25T22:07:18.154Z,99802.22
2023-02-25T22:09:45.990Z,99802.19
2023-02-25T22:12:15.252Z,99795.28
2023-02-25T22:14:45.609Z,99799.78
2023-02-25T22:17:13.686Z,99794.50
2023-02-25T22:19:41.538Z,99797.06
2023-02-25T22:22:08.987Z,99796.47
2023-02-25T22:24:36.585Z,99797.16
2023-02-25T22:27:04.267Z,99792.97
2023-02-25T22:29:33.323Z,99803.19
2023-02-25T22:32:01.353Z,99795.44
2023-02-25T22:34:29.100Z,99799.59
2023-02-25T22:36:56.989Z,99790.88
2023-02-25T22:39:24.681Z,99791.63
2023-02-25T22:41:52.498Z,99796.41
2023-02-25T22:44:20.044Z,99812.38
2023-02-25T22:46:49.159Z,99804.00
2023-02-25T22:49:17.308Z,99801.44
2023-02-25T22:51:45.911Z,99802.41
2023-02-25T22:54:14.715Z,99801.75
2023-02-25T22:56:42.799Z,99796.72
2023-02-25T22:59:12.021Z,99813.88
2023-02-25T23:01:40.620Z,99808.09
2023-02-25T23:04:10.149Z,99813.22
2023-02-25T23:06:44.006Z,99819.94
2023-02-25T23:09:12.850Z,99812.22
2023-02-25T23:11:42.374Z,99814.00
2023-02-25T23:14:13.580Z,99812.34
2023-02-25T23:16:43.009Z,99813.91
2023-02-25T23:19:15.789Z,99814.72
2023-02-25T23:21:49.506Z,99821.38
2023-02-25T23:24:21.017Z,99813.50
2023-02-25T23:26:50.552Z,99820.31
2023-02-25T23:29:18.860Z,99822.66
2023-02-25T23:31:48.165Z,99821.91
2023-02-25T23:34:19.052Z,99826.88
2023-02-25T23:36:48.473Z,99832.63
2023-02-25T23:39:17.482Z,99821.81
2023-02-25T23:44:17.280Z,99821.47
2023-02-25T23:46:47.524Z,99828.53
2023-02-25T23:49:16.135Z,99824.50
2023-02-25T23:51:49.849Z,99825.47
2023-02-25T23:54:19.582Z,99828.97
2023-02-25T23:56:47.548Z,99826.19
2023-02-25T23:59:15.541Z,99838.09
